createdAt,value
2023-05-15T00:01:35.790Z,74.96
2023-05-15T00:04:11.391Z,75.22
2023-05-15T00:06:42.416Z,75.20
2023-05-15T00:09:11.049Z,75.12
2023-05-15T00:11:42.066Z,76.95
2023-05-15T00:14:12.181Z,76.19
2023-05-15T00:16:40.075Z,76.69
2023-05-15T00:19:16.429Z,77.06
2023-05-15T00:21:44.637Z,78.04
2023-05-15T00:24:14.265Z,77.09
2023-05-15T00:26:43.417Z,76.08
2023-05-15T00:29:11.162Z,75.76
2023-05-15T00:31:38.967Z,75.17
2023-05-15T00:34:07.513Z,76.27
2023-05-15T00:36:35.573Z,75.69
2023-05-15T00:39:12.923Z,75.53
2023-05-15T00:41:43.748Z,76.94
2023-05-15T00:44:14.501Z,77.66
2023-05-15T00:47:01.431Z,79.00
2023-05-15T00:49:38.623Z,78.03
2023-05-15T00:52:08.640Z,78.29
2023-05-15T00:54:47.915Z,78.12
2023-05-15T00:57:21.481Z,77.25
2023-05-15T00:59:49.523Z,79.89
2023-05-15T01:02:22.104Z,79.05
2023-05-15T01:04:55.746Z,77.23
2023-05-15T01:07:23.794Z,76.14
2023-05-15T01:09:52.191Z,77.89
2023-05-15T01:12:23.837Z,80.06
2023-05-15T01:14:51.909Z,78.83
2023-05-15T01:17:19.633Z,78.70
2023-05-15T01:19:50.108Z,78.57
2023-05-15T01:22:40.862Z,78.91
2023-05-15T01:25:55.482Z,78.59
2023-05-15T01:28:29.542Z,78.78
2023-05-15T01:31:00.920Z,77.77
2023-05-15T01:33:37.875Z,75.88
2023-05-15T01:36:11.603Z,76.11
2023-05-15T01:38:47.174Z,76.24
2023-05-15T01:41:23.701Z,75.90
2023-05-15T01:43:56.020Z,75.42
2023-05-15T01:46:30.972Z,73.69
2023-05-15T01:49:06.858Z,72.25
2023-05-15T01:51:34.802Z,72.18
2023-05-15T01:54:03.867Z,72.30
2023-05-15T01:56:34.833Z,71.00
2023-05-15T01:59:22.782Z,71.59
2023-05-15T02:01:51.765Z,74.96
2023-05-15T02:04:20.177Z,76.98
2023-05-15T02:06:50.657Z,77.75
2023-05-15T02:09:20.058Z,78.99
2023-05-15T02:11:48.610Z,78.25
2023-05-15T02:14:18.813Z,78.41
2023-05-15T02:17:03.076Z,77.22
2023-05-15T02:19:31.008Z,76.64
2023-05-15T02:22:01.936Z,76.44
2023-05-15T02:24:30.161Z,78.79
2023-05-15T02:27:02.173Z,79.85
2023-05-15T02:29:37.115Z,80.65
2023-05-15T02:32:10.573Z,78.49
2023-05-15T02:34:40.964Z,81.47
2023-05-15T02:37:13.877Z,79.91
2023-05-15T02:39:43.728Z,81.59
2023-05-15T02:42:15.475Z,81.76
2023-05-15T02:44:45.579Z,82.57
2023-05-15T02:47:17.597Z,84.39
2023-05-15T02:49:46.330Z,81.73
2023-05-15T02:52:16.725Z,83.19
2023-05-15T02:54:44.521Z,84.73
2023-05-15T02:57:19.907Z,84.86
2023-05-15T02:59:49.664Z,83.66
2023-05-15T03:02:19.932Z,85.01
2023-05-15T03:04:52.102Z,83.72
2023-05-15T03:07:22.982Z,83.14
2023-05-15T03:09:54.264Z,83.06
2023-05-15T03:12:22.379Z,83.41
2023-05-15T03:14:57.449Z,81.27
2023-05-15T03:17:26.209Z,81.25
2023-05-15T03:19:59.786Z,81.22
2023-05-15T03:22:30.747Z,80.19
2023-05-15T03:25:02.292Z,80.69
2023-05-15T03:27:30.052Z,79.99
2023-05-15T03:30:02.028Z,80.21
2023-05-15T03:32:33.357Z,81.74
2023-05-15T03:35:01.468Z,82.51
2023-05-15T03:37:29.916Z,84.06
2023-05-15T03:40:00.597Z,84.37
2023-05-15T03:42:33.534Z,84.32
2023-05-15T03:45:04.659Z,83.80
2023-05-15T03:47:36.849Z,83.66
2023-05-15T03:50:09.434Z,82.89
2023-05-15T03:52:42.379Z,81.95
2023-05-15T03:55:12.208Z,83.67
2023-05-15T03:57:41.843Z,82.38
2023-05-15T04:00:15.579Z,80.90
2023-05-15T04:02:51.519Z,82.05
2023-05-15T04:05:22.114Z,81.99
2023-05-15T04:07:50.290Z,81.84
2023-05-15T04:10:19.877Z,83.83
2023-05-15T04:12:50.419Z,82.36
2023-05-15T04:15:23.033Z,83.39
2023-05-15T04:17:52.715Z,81.44
2023-05-15T04:20:27.499Z,81.85
2023-05-15T04:22:58.445Z,82.02
2023-05-15T04:25:27.716Z,82.48
2023-05-15T04:28:05.010Z,83.98
2023-05-15T04:30:38.736Z,83.77
2023-05-15T04:33:07.444Z,83.01
2023-05-15T04:35:36.708Z,84.58
2023-05-15T04:38:06.855Z,83.36
2023-05-15T04:40:35.151Z,85.08
2023-05-15T04:43:04.885Z,86.09
2023-05-15T04:45:34.186Z,85.33
2023-05-15T04:48:08.397Z,84.35
2023-05-15T04:50:36.892Z,84.68
2023-05-15T04:53:07.993Z,84.13
2023-05-15T04:55:36.658Z,85.77
2023-05-15T04:58:07.559Z,84.65
2023-05-15T05:00:40.589Z,86.43
2023-05-15T05:03:10.202Z,86.40
2023-05-15T05:05:38.761Z,86.39
2023-05-15T05:08:11.127Z,84.16
2023-05-15T05:10:39.629Z,84.61
2023-05-15T05:13:10.691Z,84.03
2023-05-15T05:15:54.331Z,82.85
2023-05-15T05:18:25.696Z,82.01
2023-05-15T05:21:03.721Z,80.31
2023-05-15T05:23:31.939Z,82.13
2023-05-15T05:26:05.342Z,82.37
2023-05-15T05:28:34.595Z,79.98
2023-05-15T05:31:09.774Z,79.23
2023-05-15T05:33:38.235Z,78.69
2023-05-15T05:36:06.708Z,78.17
2023-05-15T05:38:36.508Z,78.86
2023-05-15T05:41:10.548Z,80.81
2023-05-15T05:43:45.465Z,78.55
2023-05-15T05:46:15.511Z,77.17
2023-05-15T05:48:44.657Z,78.74
2023-05-15T05:51:14.537Z,79.22
2023-05-15T05:53:42.534Z,78.67
2023-05-15T05:56:13.159Z,78.75
2023-05-15T05:58:41.346Z,77.18
2023-05-15T06:01:14.290Z,76.42
2023-05-15T06:03:47.174Z,76.26
2023-05-15T06:06:15.084Z,77.13
2023-05-15T06:08:43.514Z,78.25
2023-05-15T06:11:11.391Z,77.42
2023-05-15T06:13:39.446Z,78.28
2023-05-15T06:16:11.026Z,77.80
2023-05-15T06:18:40.749Z,76.42
2023-05-15T06:21:12.063Z,77.74
2023-05-15T06:23:41.021Z,76.67
2023-05-15T06:26:12.918Z,78.35
2023-05-15T06:28:40.802Z,79.88
2023-05-15T06:31:19.171Z,76.39
2023-05-15T06:33:50.692Z,74.92
2023-05-15T06:36:22.889Z,74.76
2023-05-15T06:38:50.907Z,73.24
2023-05-15T06:41:21.585Z,72.38
2023-05-15T06:43:50.230Z,73.95
2023-05-15T06:46:19.137Z,74.54
2023-05-15T06:48:52.382Z,71.85
2023-05-15T06:51:20.465Z,71.30
2023-05-15T06:53:48.204Z,71.15
2023-05-15T06:56:16.028Z,75.55
2023-05-15T06:58:44.699Z,74.60
2023-05-15T07:01:13.903Z,75.15
2023-05-15T07:03:43.049Z,73.07
2023-05-15T07:06:14.901Z,73.87
2023-05-15T07:08:43.001Z,73.40
2023-05-15T07:11:11.090Z,73.67
2023-05-15T07:13:39.566Z,73.58
2023-05-15T07:16:12.786Z,73.17
2023-05-15T07:18:46.803Z,71.85
2023-05-15T07:21:21.767Z,70.66
2023-05-15T07:23:56.409Z,71.35
2023-05-15T07:26:34.355Z,71.07
2023-05-15T07:29:06.250Z,70.59
2023-05-15T07:31:34.981Z,69.37
2023-05-15T07:34:03.463Z,67.83
2023-05-15T07:36:35.916Z,68.57
2023-05-15T07:39:05.518Z,68.55
2023-05-15T07:41:38.000Z,70.58
2023-05-15T07:44:06.045Z,68.44
2023-05-15T07:46:37.848Z,69.33
2023-05-15T07:49:05.861Z,68.88
2023-05-15T07:51:37.730Z,71.38
2023-05-15T07:54:12.677Z,71.26
2023-05-15T07:56:44.079Z,68.38
2023-05-15T07:59:12.078Z,66.79
2023-05-15T08:01:41.218Z,66.83
2023-05-15T08:04:13.462Z,64.44
2023-05-15T08:06:44.633Z,62.73
2023-05-15T08:09:15.528Z,65.39
2023-05-15T08:11:46.015Z,67.27
2023-05-15T08:14:18.966Z,66.78
2023-05-15T08:16:57.599Z,65.70
2023-05-15T08:19:25.836Z,66.63
2023-05-15T08:21:57.037Z,67.33
2023-05-15T08:24:25.095Z,64.66
2023-05-15T08:26:55.633Z,63.50
2023-05-15T08:29:26.364Z,62.23
2023-05-15T08:31:58.075Z,62.06
2023-05-15T08:34:35.996Z,62.54
2023-05-15T08:37:10.364Z,62.10
2023-05-15T08:39:39.153Z,60.94
2023-05-15T08:42:11.537Z,62.04
2023-05-15T08:44:44.806Z,64.49
2023-05-15T08:47:15.981Z,63.35
2023-05-15T08:49:49.824Z,63.69
2023-05-15T08:52:22.661Z,64.54
2023-05-15T08:54:54.893Z,64.25
2023-05-15T08:57:23.458Z,63.75
2023-05-15T09:00:02.504Z,61.63
2023-05-15T09:02:31.450Z,61.93
2023-05-15T09:05:10.454Z,60.93
2023-05-15T09:07:40.961Z,63.37
2023-05-15T09:10:10.657Z,63.44
2023-05-15T09:12:43.274Z,62.83
2023-05-15T09:15:18.785Z,62.38
2023-05-15T09:17:52.629Z,64.37
2023-05-15T09:20:32.690Z,63.49
2023-05-15T09:23:07.103Z,63.94
2023-05-15T09:25:44.382Z,64.20
2023-05-15T09:28:28.963Z,64.84
2023-05-15T09:31:05.583Z,62.95
2023-05-15T09:33:38.634Z,63.37
2023-05-15T09:36:10.691Z,61.36
2023-05-15T09:38:48.360Z,59.39
2023-05-15T09:41:18.614Z,59.30
2023-05-15T09:43:49.902Z,60.59
2023-05-15T09:46:26.678Z,60.00
2023-05-15T09:48:56.594Z,58.99
2023-05-15T09:51:32.566Z,59.08
2023-05-15T09:54:02.157Z,58.18
2023-05-15T09:56:34.890Z,58.26
2023-05-15T09:59:09.628Z,58.22
2023-05-15T10:01:38.279Z,59.04
2023-05-15T10:04:09.218Z,58.74
2023-05-15T10:06:37.952Z,56.76
2023-05-15T10:09:07.628Z,56.79
2023-05-15T10:11:36.553Z,55.48
2023-05-15T10:14:05.756Z,58.31
2023-05-15T10:16:35.772Z,56.92
2023-05-15T10:19:07.616Z,56.97
2023-05-15T10:21:39.128Z,56.25
2023-05-15T10:24:10.396Z,54.87
2023-05-15T10:26:41.260Z,52.86
2023-05-15T10:29:14.592Z,59.40
2023-05-15T10:31:49.517Z,56.64
2023-05-15T10:34:21.631Z,57.76
2023-05-15T10:36:51.936Z,57.46
2023-05-15T10:39:29.790Z,56.09
2023-05-15T10:42:02.455Z,57.74
2023-05-15T10:44:33.442Z,54.23
2023-05-15T10:47:06.068Z,55.95
2023-05-15T10:49:34.450Z,53.90
2023-05-15T10:52:02.462Z,52.79
2023-05-15T10:54:32.340Z,51.95
2023-05-15T10:57:00.821Z,54.83
2023-05-15T10:59:37.077Z,54.42
2023-05-15T11:02:30.879Z,53.47
2023-05-15T11:05:05.377Z,53.25
2023-05-15T11:07:37.042Z,54.80
2023-05-15T11:10:38.344Z,58.65
2023-05-15T11:13:06.511Z,58.06
2023-05-15T11:15:45.407Z,57.53
2023-05-15T11:18:13.866Z,55.55
2023-05-15T11:21:07.121Z,55.41
2023-05-15T11:23:41.240Z,53.48
2023-05-15T11:26:11.122Z,52.93
2023-05-15T11:28:47.195Z,49.17
2023-05-15T11:31:19.636Z,49.67
2023-05-15T11:33:54.453Z,47.83
2023-05-15T11:36:26.697Z,48.00
2023-05-15T11:39:05.327Z,48.71
2023-05-15T11:41:36.547Z,50.09
2023-05-15T11:44:07.583Z,50.63
2023-05-15T11:46:38.624Z,48.64
2023-05-15T11:49:07.151Z,49.54
2023-05-15T11:51:36.635Z,48.63
2023-05-15T11:54:08.121Z,48.23
2023-05-15T11:56:44.002Z,48.32
2023-05-15T11:59:19.800Z,49.55
2023-05-15T12:01:50.935Z,49.73
2023-05-15T12:04:20.101Z,46.58
2023-05-15T12:06:51.788Z,46.09
2023-05-15T12:09:25.383Z,45.67
2023-05-15T12:11:55.119Z,46.72
2023-05-15T12:14:29.429Z,46.49
2023-05-15T12:17:03.184Z,47.56
2023-05-15T12:19:37.420Z,48.97
2023-05-15T12:22:12.034Z,47.13
2023-05-15T12:24:41.339Z,47.42
2023-05-15T12:27:14.807Z,46.87
2023-05-15T12:29:43.482Z,46.68
2023-05-15T12:32:12.008Z,46.06
2023-05-15T12:34:39.940Z,45.51
2023-05-15T12:37:15.926Z,46.09
2023-05-15T12:39:55.943Z,45.23
2023-05-15T12:42:26.510Z,46.08
2023-05-15T12:44:57.540Z,47.22
2023-05-15T12:47:30.104Z,49.03
2023-05-15T12:50:01.732Z,50.44
2023-05-15T12:52:31.551Z,50.38
2023-05-15T12:55:03.183Z,49.98
2023-05-15T12:57:36.389Z,48.82
2023-05-15T13:00:06.278Z,49.35
2023-05-15T13:02:34.980Z,51.40
2023-05-15T13:05:08.803Z,48.13
2023-05-15T13:07:43.049Z,49.81
2023-05-15T13:10:13.167Z,49.31
2023-05-15T13:12:45.194Z,50.31
2023-05-15T13:15:34.182Z,53.75
2023-05-15T13:18:05.207Z,53.54
2023-05-15T13:20:44.029Z,53.69
2023-05-15T13:23:23.830Z,51.96
2023-05-15T13:26:06.035Z,52.54
2023-05-15T13:28:36.897Z,53.37
2023-05-15T13:31:16.737Z,50.98
2023-05-15T13:33:45.588Z,52.00
2023-05-15T13:36:14.124Z,53.06
2023-05-15T13:38:52.269Z,52.95
2023-05-15T13:41:29.221Z,53.75
2023-05-15T13:44:00.912Z,53.74
2023-05-15T13:46:31.663Z,51.79
2023-05-15T13:49:02.581Z,50.95
2023-05-15T13:51:34.504Z,50.76
2023-05-15T13:54:05.736Z,51.80
2023-05-15T13:56:33.596Z,52.50
2023-05-15T13:59:05.524Z,50.10
2023-05-15T14:01:33.526Z,49.94
2023-05-15T14:04:04.086Z,49.27
2023-05-15T14:06:34.005Z,48.71
2023-05-15T14:09:08.676Z,47.51
2023-05-15T14:11:37.086Z,48.66
2023-05-15T14:14:07.061Z,49.60
2023-05-15T14:16:35.685Z,49.08
2023-05-15T14:19:04.222Z,48.01
2023-05-15T14:21:33.105Z,50.25
2023-05-15T14:24:04.857Z,50.90
2023-05-15T14:26:33.795Z,48.54
2023-05-15T14:29:03.075Z,50.10
2023-05-15T14:31:32.974Z,50.13
2023-05-15T14:34:03.985Z,49.66
2023-05-15T14:36:32.464Z,47.39
2023-05-15T14:39:04.725Z,46.84
2023-05-15T14:41:37.158Z,47.64
2023-05-15T14:44:05.437Z,47.59
2023-05-15T14:46:36.782Z,45.40
2023-05-15T14:49:06.849Z,45.23
2023-05-15T14:51:34.991Z,47.34
2023-05-15T14:54:09.502Z,49.33
2023-05-15T14:56:38.719Z,49.44
2023-05-15T14:59:07.256Z,51.04
2023-05-15T15:02:14.273Z,52.90
2023-05-15T15:04:42.657Z,53.22
2023-05-15T15:07:12.765Z,56.08
2023-05-15T15:09:43.351Z,59.07
2023-05-15T15:12:13.545Z,61.51
2023-05-15T15:14:43.367Z,59.65
2023-05-15T15:17:21.910Z,58.91
2023-05-15T15:19:50.118Z,60.19
2023-05-15T15:22:20.768Z,60.72
2023-05-15T15:24:50.680Z,61.27
2023-05-15T15:27:21.911Z,63.04
2023-05-15T15:29:55.532Z,63.08
2023-05-15T15:32:26.670Z,62.14
2023-05-15T15:34:55.826Z,59.15
2023-05-15T15:37:27.407Z,61.46
2023-05-15T15:39:57.632Z,60.65
2023-05-15T15:42:29.297Z,59.51
2023-05-15T15:44:57.615Z,60.43
2023-05-15T15:47:32.357Z,63.23
2023-05-15T15:50:00.728Z,65.60
2023-05-15T15:52:32.371Z,67.38
2023-05-15T15:55:00.381Z,69.01
2023-05-15T15:57:33.449Z,72.22
2023-05-15T16:00:04.258Z,74.17
2023-05-15T16:02:35.920Z,75.26
2023-05-15T16:05:09.088Z,76.11
2023-05-15T16:07:40.054Z,77.40
2023-05-15T16:10:13.159Z,77.89
2023-05-15T16:12:43.127Z,75.49
2023-05-15T16:15:22.472Z,77.68
2023-05-15T16:17:56.934Z,81.78
2023-05-15T16:20:35.663Z,83.22
2023-05-15T16:23:04.012Z,82.70
2023-05-15T16:25:31.837Z,81.69
2023-05-15T16:28:07.441Z,80.45
2023-05-15T16:30:48.237Z,79.62
2023-05-15T16:33:20.204Z,78.07
2023-05-15T16:35:57.445Z,75.86
2023-05-15T16:38:35.072Z,73.84
2023-05-15T16:41:03.566Z,72.47
2023-05-15T16:43:31.887Z,71.53
2023-05-15T16:46:02.144Z,69.43
2023-05-15T16:48:32.176Z,71.42
2023-05-15T16:51:00.669Z,68.11
2023-05-15T16:53:30.129Z,67.15
2023-05-15T16:55:58.305Z,68.14
2023-05-15T16:58:28.684Z,68.49
2023-05-15T17:01:15.221Z,70.73
2023-05-15T17:03:46.150Z,71.67
2023-05-15T17:06:14.500Z,67.59
2023-05-15T17:08:43.897Z,64.16
2023-05-15T17:11:15.227Z,66.86
2023-05-15T17:13:48.970Z,64.52
2023-05-15T17:16:17.297Z,64.63
2023-05-15T17:18:50.101Z,66.31
2023-05-15T17:21:27.642Z,66.46
2023-05-15T17:23:59.335Z,67.00
2023-05-15T17:26:36.932Z,68.40
2023-05-15T17:29:07.316Z,68.35
2023-05-15T17:31:37.051Z,68.80
2023-05-15T17:34:06.573Z,70.97
2023-05-15T17:36:35.304Z,72.08
2023-05-15T17:39:06.225Z,72.06
2023-05-15T17:41:34.264Z,71.62
2023-05-15T17:44:03.753Z,72.72
2023-05-15T17:46:35.006Z,74.19
2023-05-15T17:49:09.495Z,74.12
2023-05-15T17:51:37.475Z,73.37
2023-05-15T17:54:13.460Z,74.08
2023-05-15T17:56:41.292Z,73.74
2023-05-15T17:59:12.463Z,76.62
2023-05-15T18:01:40.444Z,76.16
2023-05-15T18:04:13.446Z,76.96
2023-05-15T18:06:42.707Z,77.64
2023-05-15T18:09:10.938Z,78.07
2023-05-15T18:11:39.925Z,78.06
2023-05-15T18:14:08.270Z,81.21
2023-05-15T18:16:50.376Z,80.71
2023-05-15T18:19:21.655Z,80.37
2023-05-15T18:21:52.718Z,81.49
2023-05-15T18:24:22.776Z,81.54
2023-05-15T18:26:53.467Z,81.87
2023-05-15T18:29:23.112Z,81.62
2023-05-15T18:31:52.587Z,81.47
2023-05-15T18:34:26.128Z,81.48
2023-05-15T18:36:54.175Z,81.46
2023-05-15T18:39:25.268Z,81.84
2023-05-15T18:41:54.475Z,82.56
2023-05-15T18:44:25.787Z,82.22
2023-05-15T18:46:54.348Z,83.92
2023-05-15T18:49:26.723Z,83.88
2023-05-15T18:51:54.569Z,84.51
2023-05-15T18:54:24.278Z,84.88
2023-05-15T18:56:57.879Z,83.87
2023-05-15T18:59:27.700Z,82.56
2023-05-15T19:02:00.549Z,83.48
2023-05-15T19:04:30.544Z,83.16
2023-05-15T19:07:04.311Z,82.67
2023-05-15T19:09:35.209Z,81.99
2023-05-15T19:12:05.308Z,80.32
2023-05-15T19:14:36.562Z,80.45
2023-05-15T19:17:12.471Z,80.86
2023-05-15T19:19:41.949Z,83.06
2023-05-15T19:22:14.807Z,82.75
2023-05-15T19:24:47.831Z,84.62
2023-05-15T19:27:18.629Z,84.56
2023-05-15T19:29:52.050Z,83.73
2023-05-15T19:32:35.518Z,82.83
2023-05-15T19:35:13.228Z,84.33
2023-05-15T19:37:46.205Z,83.69
2023-05-15T19:40:16.283Z,82.96
2023-05-15T19:42:48.270Z,83.00
2023-05-15T19:45:21.616Z,80.19
2023-05-15T19:47:54.833Z,79.92
2023-05-15T19:50:26.086Z,81.62
2023-05-15T19:52:56.286Z,80.82
2023-05-15T19:55:26.801Z,81.54
2023-05-15T19:57:59.065Z,80.39
2023-05-15T20:00:28.527Z,78.54
2023-05-15T20:03:00.977Z,78.48
2023-05-15T20:05:33.243Z,76.97
2023-05-15T20:08:03.155Z,75.24
2023-05-15T20:10:34.450Z,77.32
2023-05-15T20:13:03.821Z,79.13
2023-05-15T20:15:32.284Z,81.33
2023-05-15T20:18:11.376Z,80.02
2023-05-15T20:20:44.094Z,79.64
2023-05-15T20:23:19.651Z,80.45
2023-05-15T20:25:49.963Z,78.37
2023-05-15T20:28:20.387Z,78.68
2023-05-15T20:30:53.886Z,82.97
2023-05-15T20:33:21.793Z,81.85
2023-05-15T20:35:53.368Z,81.13
2023-05-15T20:38:24.144Z,80.21
2023-05-15T20:40:53.195Z,77.32
2023-05-15T20:43:24.314Z,76.35
2023-05-15T20:45:52.815Z,74.77
2023-05-15T20:48:27.019Z,74.32
2023-05-15T20:50:59.706Z,74.86
2023-05-15T20:53:28.973Z,73.88
2023-05-15T20:55:56.842Z,72.96
2023-05-15T20:58:24.978Z,71.50
2023-05-15T21:00:54.829Z,70.90
2023-05-15T21:03:24.706Z,68.21
2023-05-15T21:05:54.816Z,69.14
2023-05-15T21:08:28.256Z,67.97
2023-05-15T21:10:58.859Z,68.12
2023-05-15T21:13:27.339Z,67.83
2023-05-15T21:16:00.460Z,71.18
2023-05-15T21:18:31.145Z,73.52
2023-05-15T21:21:03.535Z,75.25
2023-05-15T21:23:33.583Z,75.62
2023-05-15T21:26:04.549Z,77.67
2023-05-15T21:28:34.467Z,77.00
2023-05-15T21:31:11.784Z,79.92
2023-05-15T21:33:43.575Z,77.51
2023-05-15T21:36:12.892Z,76.81
2023-05-15T21:38:49.560Z,76.41
2023-05-15T21:41:18.714Z,77.89
2023-05-15T21:43:47.129Z,78.64
2023-05-15T21:46:20.058Z,77.26
2023-05-15T21:48:51.214Z,78.04
2023-05-15T21:51:22.837Z,79.40
2023-05-15T21:53:57.291Z,78.14
2023-05-15T21:56:27.321Z,78.13
2023-05-15T21:58:55.609Z,76.97
2023-05-15T22:01:23.748Z,76.57
2023-05-15T22:04:00.810Z,75.51
2023-05-15T22:06:33.477Z,77.91
2023-05-15T22:09:15.060Z,79.05
2023-05-15T22:11:43.360Z,78.11
2023-05-15T22:14:12.864Z,79.79
2023-05-15T22:16:40.956Z,77.69
2023-05-15T22:19:31.567Z,79.20
2023-05-15T22:22:01.183Z,82.87
2023-05-15T22:24:30.646Z,83.63
2023-05-15T22:26:58.875Z,81.62
2023-05-15T22:29:27.439Z,83.03
2023-05-15T22:31:55.923Z,83.56
2023-05-15T22:34:30.311Z,83.92
2023-05-15T22:37:00.049Z,84.30
2023-05-15T22:39:29.801Z,82.53
2023-05-15T22:41:59.219Z,82.11
2023-05-15T22:44:31.555Z,80.39
2023-05-15T22:47:04.152Z,82.69
2023-05-15T22:49:34.995Z,84.65
2023-05-15T22:52:03.674Z,84.71
2023-05-15T22:54:47.028Z,86.01
2023-05-15T22:57:20.122Z,85.90
2023-05-15T22:59:48.071Z,85.99
2023-05-15T23:02:17.994Z,88.51
2023-05-15T23:04:48.533Z,89.38
2023-05-15T23:07:17.272Z,88.76
2023-05-15T23:09:45.064Z,89.45
2023-05-15T23:12:16.995Z,86.83
2023-05-15T23:14:44.782Z,86.57
2023-05-15T23:17:13.535Z,86.61
2023-05-15T23:19:44.508Z,84.83
2023-05-15T23:22:13.738Z,85.95
2023-05-15T23:24:42.532Z,84.00
2023-05-15T23:27:10.572Z,85.95
2023-05-15T23:29:44.220Z,85.35
2023-05-15T23:32:15.546Z,85.86
2023-05-15T23:34:45.473Z,85.59
2023-05-15T23:37:22.720Z,84.29
2023-05-15T23:40:14.168Z,84.42
2023-05-15T23:42:44.097Z,86.85
2023-05-15T23:45:17.887Z,86.12
2023-05-15T23:47:46.838Z,86.35
2023-05-15T23:50:15.147Z,86.40
2023-05-15T23:52:46.492Z,86.17
2023-05-15T23:55:17.104Z,85.69
2023-05-15T23:57:47.211Z,85.83
